sensor_id;sensor_type;location;lat;lon;timestamp;P1;durP1;ratioP1;P2;durP2;ratioP2
43801;SDS011;29429;51.074;13.764;2022-07-29T00:01:01;5.40;;;1.20;;
43801;SDS011;29429;51.074;13.764;2022-07-29T00:03:28;3.35;;;1.25;;
43801;SDS011;29429;51.074;13.764;2022-07-29T00:05:55;1.67;;;1.00;;
43801;SDS011;29429;51.074;13.764;2022-07-29T00:08:22;4.43;;;1.27;;
43801;SDS011;29429;51.074;13.764;2022-07-29T00:10:50;2.65;;;1.02;;
43801;SDS011;29429;51.074;13.764;2022-07-29T00:13:17;3.67;;;1.13;;
43801;SDS011;29429;51.074;13.764;2022-07-29T00:15:58;3.63;;;1.35;;
43801;SDS011;29429;51.074;13.764;2022-07-29T00:18:30;3.10;;;1.10;;
43801;SDS011;29429;51.074;13.764;2022-07-29T00:20:58;2.60;;;1.25;;
43801;SDS011;29429;51.074;13.764;2022-07-29T00:23:25;2.53;;;1.10;;
43801;SDS011;29429;51.074;13.764;2022-07-29T00:25:52;3.25;;;1.20;;
43801;SDS011;29429;51.074;13.764;2022-07-29T00:28:19;3.55;;;1.30;;
43801;SDS011;29429;51.074;13.764;2022-07-29T00:30:46;5.82;;;1.20;;
43801;SDS011;29429;51.074;13.764;2022-07-29T00:33:13;2.92;;;1.45;;
43801;SDS011;29429;51.074;13.764;2022-07-29T00:35:40;2.47;;;1.33;;
43801;SDS011;29429;51.074;13.764;2022-07-29T00:38:19;2.95;;;1.20;;
43801;SDS011;29429;51.074;13.764;2022-07-29T00:40:47;5.13;;;1.50;;
43801;SDS011;29429;51.074;13.764;2022-07-29T00:43:14;7.80;;;1.98;;
43801;SDS011;29429;51.074;13.764;2022-07-29T00:45:42;4.65;;;1.60;;
43801;SDS011;29429;51.074;13.764;2022-07-29T00:48:10;4.07;;;1.48;;
43801;SDS011;29429;51.074;13.764;2022-07-29T00:50:37;5.10;;;1.55;;
43801;SDS011;29429;51.074;13.764;2022-07-29T00:53:07;2.30;;;1.20;;
43801;SDS011;29429;51.074;13.764;2022-07-29T00:55:37;3.70;;;1.30;;
43801;SDS011;29429;51.074;13.764;2022-07-29T00:58:04;2.95;;;1.15;;
43801;SDS011;29429;51.074;13.764;2022-07-29T01:00:32;3.25;;;1.40;;
43801;SDS011;29429;51.074;13.764;2022-07-29T01:02:59;3.35;;;1.33;;
43801;SDS011;29429;51.074;13.764;2022-07-29T01:05:27;6.70;;;1.23;;
43801;SDS011;29429;51.074;13.764;2022-07-29T01:08:15;2.40;;;1.15;;
43801;SDS011;29429;51.074;13.764;2022-07-29T01:10:44;4.15;;;1.52;;
43801;SDS011;29429;51.074;13.764;2022-07-29T01:13:13;3.05;;;1.20;;
43801;SDS011;29429;51.074;13.764;2022-07-29T01:15:43;7.63;;;1.73;;
43801;SDS011;29429;51.074;13.764;2022-07-29T01:18:34;4.03;;;1.27;;
43801;SDS011;29429;51.074;13.764;2022-07-29T01:21:34;4.10;;;1.30;;
43801;SDS011;29429;51.074;13.764;2022-07-29T01:24:29;7.25;;;1.42;;
43801;SDS011;29429;51.074;13.764;2022-07-29T01:29:59;4.03;;;1.65;;
43801;SDS011;29429;51.074;13.764;2022-07-29T01:32:34;4.38;;;1.50;;
43801;SDS011;29429;51.074;13.764;2022-07-29T01:37:43;4.00;;;1.30;;
43801;SDS011;29429;51.074;13.764;2022-07-29T01:40:25;3.85;;;1.35;;
43801;SDS011;29429;51.074;13.764;2022-07-29T01:42:59;5.65;;;1.73;;
43801;SDS011;29429;51.074;13.764;2022-07-29T01:48:37;6.28;;;1.80;;
43801;SDS011;29429;51.074;13.764;2022-07-29T01:51:19;4.47;;;1.70;;
43801;SDS011;29429;51.074;13.764;2022-07-29T01:54:08;5.00;;;2.03;;
43801;SDS011;29429;51.074;13.764;2022-07-29T01:56:43;6.60;;;2.03;;
43801;SDS011;29429;51.074;13.764;2022-07-29T01:59:14;6.22;;;2.80;;
43801;SDS011;29429;51.074;13.764;2022-07-29T02:01:47;6.05;;;2.30;;
43801;SDS011;29429;51.074;13.764;2022-07-29T02:04:20;5.95;;;2.45;;
43801;SDS011;29429;51.074;13.764;2022-07-29T02:06:57;6.60;;;2.75;;
43801;SDS011;29429;51.074;13.764;2022-07-29T02:09:29;7.18;;;3.25;;
43801;SDS011;29429;51.074;13.764;2022-07-29T02:11:59;10.68;;;5.03;;
43801;SDS011;29429;51.074;13.764;2022-07-29T02:14:30;7.82;;;4.55;;
43801;SDS011;29429;51.074;13.764;2022-07-29T02:17:03;8.90;;;5.07;;
43801;SDS011;29429;51.074;13.764;2022-07-29T02:19:31;13.88;;;5.80;;
43801;SDS011;29429;51.074;13.764;2022-07-29T02:22:00;9.88;;;4.90;;
43801;SDS011;29429;51.074;13.764;2022-07-29T02:24:28;13.02;;;5.07;;
43801;SDS011;29429;51.074;13.764;2022-07-29T02:26:57;8.48;;;4.28;;
43801;SDS011;29429;51.074;13.764;2022-07-29T02:29:26;9.98;;;4.88;;
43801;SDS011;29429;51.074;13.764;2022-07-29T02:31:57;11.13;;;5.10;;
43801;SDS011;29429;51.074;13.764;2022-07-29T02:34:26;10.27;;;4.10;;
43801;SDS011;29429;51.074;13.764;2022-07-29T02:36:55;11.00;;;4.75;;
43801;SDS011;29429;51.074;13.764;2022-07-29T02:39:22;7.70;;;4.30;;
43801;SDS011;29429;51.074;13.764;2022-07-29T02:42:03;7.90;;;3.42;;
43801;SDS011;29429;51.074;13.764;2022-07-29T02:44:34;6.93;;;2.95;;
43801;SDS011;29429;51.074;13.764;2022-07-29T02:47:19;6.22;;;2.55;;
43801;SDS011;29429;51.074;13.764;2022-07-29T02:53:00;6.60;;;2.97;;
43801;SDS011;29429;51.074;13.764;2022-07-29T02:55:37;4.85;;;2.92;;
43801;SDS011;29429;51.074;13.764;2022-07-29T02:58:32;7.78;;;3.65;;
43801;SDS011;29429;51.074;13.764;2022-07-29T03:01:12;6.07;;;3.38;;
43801;SDS011;29429;51.074;13.764;2022-07-29T03:03:48;8.85;;;4.43;;
43801;SDS011;29429;51.074;13.764;2022-07-29T03:06:19;12.85;;;6.30;;
43801;SDS011;29429;51.074;13.764;2022-07-29T03:09:03;10.48;;;6.10;;
43801;SDS011;29429;51.074;13.764;2022-07-29T03:11:38;9.48;;;5.93;;
43801;SDS011;29429;51.074;13.764;2022-07-29T03:14:18;10.43;;;5.85;;
43801;SDS011;29429;51.074;13.764;2022-07-29T03:16:47;8.35;;;4.45;;
43801;SDS011;29429;51.074;13.764;2022-07-29T03:19:15;12.88;;;4.50;;
43801;SDS011;29429;51.074;13.764;2022-07-29T03:21:43;8.10;;;3.70;;
43801;SDS011;29429;51.074;13.764;2022-07-29T03:24:10;9.00;;;4.05;;
43801;SDS011;29429;51.074;13.764;2022-07-29T03:26:57;5.20;;;2.88;;
43801;SDS011;29429;51.074;13.764;2022-07-29T03:29:25;5.22;;;2.78;;
43801;SDS011;29429;51.074;13.764;2022-07-29T03:32:00;2.83;;;1.80;;
43801;SDS011;29429;51.074;13.764;2022-07-29T03:34:34;6.97;;;3.33;;
43801;SDS011;29429;51.074;13.764;2022-07-29T03:37:04;7.35;;;3.63;;
43801;SDS011;29429;51.074;13.764;2022-07-29T03:39:33;5.88;;;3.17;;
43801;SDS011;29429;51.074;13.764;2022-07-29T03:42:05;7.22;;;3.70;;
43801;SDS011;29429;51.074;13.764;2022-07-29T03:44:36;8.15;;;4.40;;
43801;SDS011;29429;51.074;13.764;2022-07-29T03:47:05;9.32;;;4.15;;
43801;SDS011;29429;51.074;13.764;2022-07-29T03:49:35;10.98;;;4.15;;
43801;SDS011;29429;51.074;13.764;2022-07-29T03:52:05;7.82;;;3.70;;
43801;SDS011;29429;51.074;13.764;2022-07-29T03:54:32;6.07;;;2.92;;
43801;SDS011;29429;51.074;13.764;2022-07-29T03:57:00;6.30;;;3.13;;
43801;SDS011;29429;51.074;13.764;2022-07-29T03:59:30;5.22;;;3.10;;
43801;SDS011;29429;51.074;13.764;2022-07-29T04:02:00;6.70;;;3.20;;
43801;SDS011;29429;51.074;13.764;2022-07-29T04:04:36;10.07;;;3.38;;
43801;SDS011;29429;51.074;13.764;2022-07-29T04:07:03;5.78;;;3.13;;
43801;SDS011;29429;51.074;13.764;2022-07-29T04:09:31;8.93;;;3.47;;
43801;SDS011;29429;51.074;13.764;2022-07-29T04:11:58;6.65;;;3.20;;
43801;SDS011;29429;51.074;13.764;2022-07-29T04:14:30;5.47;;;3.30;;
43801;SDS011;29429;51.074;13.764;2022-07-29T04:16:59;10.57;;;3.80;;
43801;SDS011;29429;51.074;13.764;2022-07-29T04:19:30;10.68;;;4.55;;
43801;SDS011;29429;51.074;13.764;2022-07-29T04:21:59;10.48;;;4.68;;
43801;SDS011;29429;51.074;13.764;2022-07-29T04:24:27;15.30;;;5.28;;
43801;SDS011;29429;51.074;13.764;2022-07-29T04:26:54;12.43;;;5.47;;
43801;SDS011;29429;51.074;13.764;2022-07-29T04:29:21;17.48;;;5.10;;
43801;SDS011;29429;51.074;13.764;2022-07-29T04:31:48;13.00;;;4.32;;
43801;SDS011;29429;51.074;13.764;2022-07-29T04:34:15;11.50;;;4.00;;
43801;SDS011;29429;51.074;13.764;2022-07-29T04:36:43;11.27;;;4.05;;
43801;SDS011;29429;51.074;13.764;2022-07-29T04:39:10;9.82;;;3.95;;
43801;SDS011;29429;51.074;13.764;2022-07-29T04:41:37;9.25;;;3.33;;
43801;SDS011;29429;51.074;13.764;2022-07-29T04:44:04;6.78;;;2.88;;
43801;SDS011;29429;51.074;13.764;2022-07-29T04:46:37;8.32;;;3.10;;
43801;SDS011;29429;51.074;13.764;2022-07-29T04:49:05;8.50;;;3.03;;
43801;SDS011;29429;51.074;13.764;2022-07-29T04:51:32;21.17;;;4.97;;
43801;SDS011;29429;51.074;13.764;2022-07-29T04:53:59;13.65;;;4.53;;
43801;SDS011;29429;51.074;13.764;2022-07-29T04:56:26;19.88;;;5.30;;
43801;SDS011;29429;51.074;13.764;2022-07-29T04:58:53;15.77;;;4.50;;
43801;SDS011;29429;51.074;13.764;2022-07-29T05:01:20;18.58;;;4.93;;
43801;SDS011;29429;51.074;13.764;2022-07-29T05:03:47;11.77;;;4.90;;
43801;SDS011;29429;51.074;13.764;2022-07-29T05:06:14;13.60;;;5.22;;
43801;SDS011;29429;51.074;13.764;2022-07-29T05:08:41;14.40;;;5.43;;
43801;SDS011;29429;51.074;13.764;2022-07-29T05:11:08;12.15;;;6.55;;
43801;SDS011;29429;51.074;13.764;2022-07-29T05:13:37;16.13;;;7.90;;
43801;SDS011;29429;51.074;13.764;2022-07-29T05:16:12;16.02;;;8.88;;
43801;SDS011;29429;51.074;13.764;2022-07-29T05:18:40;22.17;;;10.85;;
43801;SDS011;29429;51.074;13.764;2022-07-29T05:21:08;18.13;;;9.82;;
43801;SDS011;29429;51.074;13.764;2022-07-29T05:23:35;20.55;;;11.23;;
43801;SDS011;29429;51.074;13.764;2022-07-29T05:26:01;18.33;;;11.05;;
43801;SDS011;29429;51.074;13.764;2022-07-29T05:28:28;19.25;;;12.10;;
43801;SDS011;29429;51.074;13.764;2022-07-29T05:30:59;16.83;;;10.35;;
43801;SDS011;29429;51.074;13.764;2022-07-29T05:33:26;19.67;;;11.73;;
43801;SDS011;29429;51.074;13.764;2022-07-29T05:36:02;20.27;;;11.80;;
43801;SDS011;29429;51.074;13.764;2022-07-29T05:38:33;17.10;;;10.57;;
43801;SDS011;29429;51.074;13.764;2022-07-29T05:41:01;17.42;;;10.38;;
43801;SDS011;29429;51.074;13.764;2022-07-29T05:43:29;18.42;;;11.43;;
43801;SDS011;29429;51.074;13.764;2022-07-29T05:45:57;14.85;;;10.55;;
43801;SDS011;29429;51.074;13.764;2022-07-29T05:48:24;18.33;;;10.85;;
43801;SDS011;29429;51.074;13.764;2022-07-29T05:50:51;20.98;;;11.40;;
43801;SDS011;29429;51.074;13.764;2022-07-29T05:53:18;19.40;;;11.07;;
43801;SDS011;29429;51.074;13.764;2022-07-29T05:55:46;20.30;;;10.77;;
43801;SDS011;29429;51.074;13.764;2022-07-29T05:58:14;19.25;;;11.40;;
43801;SDS011;29429;51.074;13.764;2022-07-29T06:00:42;18.80;;;10.88;;
43801;SDS011;29429;51.074;13.764;2022-07-29T06:03:08;18.92;;;10.57;;
43801;SDS011;29429;51.074;13.764;2022-07-29T06:05:35;18.95;;;11.07;;
43801;SDS011;29429;51.074;13.764;2022-07-29T06:08:02;15.77;;;8.80;;
43801;SDS011;29429;51.074;13.764;2022-07-29T06:10:31;14.60;;;8.93;;
43801;SDS011;29429;51.074;13.764;2022-07-29T06:12:59;17.02;;;10.27;;
43801;SDS011;29429;51.074;13.764;2022-07-29T06:15:26;19.42;;;10.85;;
43801;SDS011;29429;51.074;13.764;2022-07-29T06:17:53;18.27;;;9.35;;
43801;SDS011;29429;51.074;13.764;2022-07-29T06:20:26;18.23;;;10.23;;
43801;SDS011;29429;51.074;13.764;2022-07-29T06:22:57;18.52;;;10.98;;
43801;SDS011;29429;51.074;13.764;2022-07-29T06:25:24;17.92;;;10.32;;
43801;SDS011;29429;51.074;13.764;2022-07-29T06:27:52;16.60;;;8.77;;
43801;SDS011;29429;51.074;13.764;2022-07-29T06:30:19;16.33;;;9.20;;
43801;SDS011;29429;51.074;13.764;2022-07-29T06:32:46;13.57;;;8.60;;
43801;SDS011;29429;51.074;13.764;2022-07-29T06:35:13;16.50;;;9.15;;
43801;SDS011;29429;51.074;13.764;2022-07-29T06:38:00;20.10;;;9.68;;
43801;SDS011;29429;51.074;13.764;2022-07-29T06:40:40;19.58;;;9.10;;
43801;SDS011;29429;51.074;13.764;2022-07-29T06:43:30;23.73;;;9.95;;
43801;SDS011;29429;51.074;13.764;2022-07-29T06:46:01;21.58;;;9.98;;
43801;SDS011;29429;51.074;13.764;2022-07-29T06:48:32;19.92;;;9.80;;
43801;SDS011;29429;51.074;13.764;2022-07-29T06:51:00;16.35;;;8.68;;
43801;SDS011;29429;51.074;13.764;2022-07-29T06:53:28;19.15;;;9.43;;
43801;SDS011;29429;51.074;13.764;2022-07-29T06:55:56;15.50;;;7.85;;
43801;SDS011;29429;51.074;13.764;2022-07-29T06:58:25;18.52;;;7.72;;
43801;SDS011;29429;51.074;13.764;2022-07-29T07:00:55;18.23;;;7.55;;
43801;SDS011;29429;51.074;13.764;2022-07-29T07:03:24;13.35;;;7.03;;
43801;SDS011;29429;51.074;13.764;2022-07-29T07:05:51;11.93;;;6.40;;
43801;SDS011;29429;51.074;13.764;2022-07-29T07:08:20;13.48;;;6.45;;
43801;SDS011;29429;51.074;13.764;2022-07-29T07:10:50;14.95;;;6.35;;
43801;SDS011;29429;51.074;13.764;2022-07-29T07:13:18;10.98;;;6.38;;
43801;SDS011;29429;51.074;13.764;2022-07-29T07:15:46;13.10;;;7.18;;
43801;SDS011;29429;51.074;13.764;2022-07-29T07:18:15;11.90;;;6.72;;
43801;SDS011;29429;51.074;13.764;2022-07-29T07:20:42;13.82;;;7.35;;
43801;SDS011;29429;51.074;13.764;2022-07-29T07:23:09;12.30;;;6.95;;
43801;SDS011;29429;51.074;13.764;2022-07-29T07:25:37;12.93;;;7.60;;
43801;SDS011;29429;51.074;13.764;2022-07-29T07:28:04;13.77;;;8.10;;
43801;SDS011;29429;51.074;13.764;2022-07-29T07:30:31;15.20;;;8.15;;
43801;SDS011;29429;51.074;13.764;2022-07-29T07:32:59;15.82;;;9.02;;
43801;SDS011;29429;51.074;13.764;2022-07-29T07:35:26;19.58;;;8.20;;
43801;SDS011;29429;51.074;13.764;2022-07-29T07:37:54;17.40;;;8.95;;
43801;SDS011;29429;51.074;13.764;2022-07-29T07:40:22;15.40;;;8.23;;
43801;SDS011;29429;51.074;13.764;2022-07-29T07:42:49;14.73;;;8.20;;
43801;SDS011;29429;51.074;13.764;2022-07-29T07:45:17;20.45;;;8.13;;
43801;SDS011;29429;51.074;13.764;2022-07-29T07:47:44;16.42;;;7.68;;
43801;SDS011;29429;51.074;13.764;2022-07-29T07:50:11;13.13;;;8.57;;
43801;SDS011;29429;51.074;13.764;2022-07-29T07:52:48;18.20;;;8.98;;
43801;SDS011;29429;51.074;13.764;2022-07-29T07:55:18;15.40;;;7.70;;
43801;SDS011;29429;51.074;13.764;2022-07-29T07:57:46;15.13;;;8.25;;
43801;SDS011;29429;51.074;13.764;2022-07-29T08:00:15;14.98;;;7.75;;
43801;SDS011;29429;51.074;13.764;2022-07-29T08:02:43;15.50;;;8.00;;
43801;SDS011;29429;51.074;13.764;2022-07-29T08:05:11;14.50;;;7.85;;
43801;SDS011;29429;51.074;13.764;2022-07-29T08:07:43;17.92;;;8.18;;
43801;SDS011;29429;51.074;13.764;2022-07-29T08:10:13;14.80;;;7.97;;
43801;SDS011;29429;51.074;13.764;2022-07-29T08:13:04;17.98;;;7.55;;
43801;SDS011;29429;51.074;13.764;2022-07-29T08:15:32;17.90;;;7.82;;
43801;SDS011;29429;51.074;13.764;2022-07-29T08:18:00;14.48;;;7.55;;
43801;SDS011;29429;51.074;13.764;2022-07-29T08:20:33;17.80;;;7.83;;
43801;SDS011;29429;51.074;13.764;2022-07-29T08:23:02;19.00;;;8.05;;
43801;SDS011;29429;51.074;13.764;2022-07-29T08:25:43;18.60;;;8.57;;
43801;SDS011;29429;51.074;13.764;2022-07-29T08:28:11;23.80;;;7.28;;
43801;SDS011;29429;51.074;13.764;2022-07-29T08:34:25;20.58;;;7.93;;
43801;SDS011;29429;51.074;13.764;2022-07-29T08:36:55;19.15;;;7.82;;
43801;SDS011;29429;51.074;13.764;2022-07-29T08:39:43;21.58;;;9.10;;
43801;SDS011;29429;51.074;13.764;2022-07-29T08:42:10;17.63;;;8.38;;
43801;SDS011;29429;51.074;13.764;2022-07-29T08:44:38;20.83;;;8.23;;
43801;SDS011;29429;51.074;13.764;2022-07-29T08:47:05;18.25;;;7.93;;
43801;SDS011;29429;51.074;13.764;2022-07-29T08:49:35;15.70;;;8.25;;
43801;SDS011;29429;51.074;13.764;2022-07-29T08:52:02;21.77;;;8.43;;
43801;SDS011;29429;51.074;13.764;2022-07-29T08:54:29;19.25;;;8.77;;
43801;SDS011;29429;51.074;13.764;2022-07-29T08:56:56;16.38;;;9.05;;
43801;SDS011;29429;51.074;13.764;2022-07-29T08:59:26;13.52;;;8.10;;
43801;SDS011;29429;51.074;13.764;2022-07-29T09:01:58;16.23;;;9.15;;
43801;SDS011;29429;51.074;13.764;2022-07-29T09:04:30;19.98;;;10.13;;
43801;SDS011;29429;51.074;13.764;2022-07-29T09:07:02;12.52;;;8.05;;
43801;SDS011;29429;51.074;13.764;2022-07-29T09:09:33;15.48;;;8.75;;
43801;SDS011;29429;51.074;13.764;2022-07-29T09:12:00;15.75;;;8.45;;
43801;SDS011;29429;51.074;13.764;2022-07-29T09:14:27;14.70;;;8.07;;
43801;SDS011;29429;51.074;13.764;2022-07-29T09:16:55;12.38;;;7.63;;
43801;SDS011;29429;51.074;13.764;2022-07-29T09:19:25;17.15;;;8.13;;
43801;SDS011;29429;51.074;13.764;2022-07-29T09:21:55;10.85;;;6.75;;
43801;SDS011;29429;51.074;13.764;2022-07-29T09:24:26;13.07;;;7.13;;
43801;SDS011;29429;51.074;13.764;2022-07-29T09:27:02;14.13;;;7.30;;
43801;SDS011;29429;51.074;13.764;2022-07-29T09:30:13;12.07;;;6.90;;
43801;SDS011;29429;51.074;13.764;2022-07-29T09:32:57;11.90;;;7.00;;
43801;SDS011;29429;51.074;13.764;2022-07-29T09:35:27;11.88;;;7.15;;
43801;SDS011;29429;51.074;13.764;2022-07-29T09:37:56;11.18;;;7.43;;
43801;SDS011;29429;51.074;13.764;2022-07-29T09:40:25;11.45;;;7.00;;
43801;SDS011;29429;51.074;13.764;2022-07-29T09:42:54;13.13;;;6.97;;
43801;SDS011;29429;51.074;13.764;2022-07-29T09:45:30;12.65;;;6.53;;
43801;SDS011;29429;51.074;13.764;2022-07-29T09:48:12;9.85;;;6.72;;
43801;SDS011;29429;51.074;13.764;2022-07-29T09:50:45;11.40;;;6.50;;
43801;SDS011;29429;51.074;13.764;2022-07-29T09:53:37;9.07;;;6.15;;
43801;SDS011;29429;51.074;13.764;2022-07-29T09:56:04;11.07;;;6.47;;
43801;SDS011;29429;51.074;13.764;2022-07-29T09:58:31;8.70;;;6.35;;
43801;SDS011;29429;51.074;13.764;2022-07-29T10:01:01;13.82;;;6.53;;
43801;SDS011;29429;51.074;13.764;2022-07-29T10:03:29;11.75;;;7.57;;
43801;SDS011;29429;51.074;13.764;2022-07-29T10:06:09;12.57;;;7.07;;
43801;SDS011;29429;51.074;13.764;2022-07-29T10:08:39;10.23;;;7.05;;
43801;SDS011;29429;51.074;13.764;2022-07-29T10:11:09;13.70;;;8.43;;
43801;SDS011;29429;51.074;13.764;2022-07-29T10:13:41;12.55;;;7.80;;
43801;SDS011;29429;51.074;13.764;2022-07-29T10:16:10;11.43;;;7.35;;
43801;SDS011;29429;51.074;13.764;2022-07-29T10:18:40;9.57;;;6.82;;
43801;SDS011;29429;51.074;13.764;2022-07-29T10:21:10;11.35;;;7.35;;
43801;SDS011;29429;51.074;13.764;2022-07-29T10:23:58;10.35;;;7.22;;
43801;SDS011;29429;51.074;13.764;2022-07-29T10:26:27;10.80;;;6.57;;
43801;SDS011;29429;51.074;13.764;2022-07-29T10:28:55;9.02;;;6.45;;
43801;SDS011;29429;51.074;13.764;2022-07-29T10:31:26;12.65;;;7.30;;
43801;SDS011;29429;51.074;13.764;2022-07-29T10:37:35;8.85;;;5.68;;
43801;SDS011;29429;51.074;13.764;2022-07-29T10:43:46;6.85;;;4.55;;
43801;SDS011;29429;51.074;13.764;2022-07-29T10:46:17;7.97;;;4.25;;
43801;SDS011;29429;51.074;13.764;2022-07-29T10:54:17;6.45;;;3.38;;
43801;SDS011;29429;51.074;13.764;2022-07-29T10:56:47;6.00;;;2.78;;
43801;SDS011;29429;51.074;13.764;2022-07-29T11:01:49;3.92;;;2.10;;
43801;SDS011;29429;51.074;13.764;2022-07-29T11:07:29;3.20;;;2.10;;
43801;SDS011;29429;51.074;13.764;2022-07-29T11:15:10;3.65;;;1.80;;
43801;SDS011;29429;51.074;13.764;2022-07-29T11:31:37;4.43;;;2.00;;
43801;SDS011;29429;51.074;13.764;2022-07-29T11:34:27;2.17;;;1.67;;
43801;SDS011;29429;51.074;13.764;2022-07-29T11:39:36;3.92;;;2.17;;
43801;SDS011;29429;51.074;13.764;2022-07-29T11:42:48;2.33;;;1.98;;
43801;SDS011;29429;51.074;13.764;2022-07-29T11:45:01;2.92;;;2.08;;
43801;SDS011;29429;51.074;13.764;2022-07-29T11:47:56;7.13;;;2.25;;
43801;SDS011;29429;51.074;13.764;2022-07-29T11:50:45;2.30;;;2.00;;
43801;SDS011;29429;51.074;13.764;2022-07-29T11:53:13;3.75;;;2.20;;
43801;SDS011;29429;51.074;13.764;2022-07-29T11:55:41;3.42;;;2.05;;
43801;SDS011;29429;51.074;13.764;2022-07-29T11:58:20;3.50;;;1.90;;
43801;SDS011;29429;51.074;13.764;2022-07-29T12:00:52;1.70;;;1.60;;
43801;SDS011;29429;51.074;13.764;2022-07-29T12:03:25;2.63;;;1.80;;
43801;SDS011;29429;51.074;13.764;2022-07-29T12:06:01;10.75;;;6.07;;
43801;SDS011;29429;51.074;13.764;2022-07-29T12:08:56;7.45;;;4.90;;
43801;SDS011;29429;51.074;13.764;2022-07-29T12:11:23;11.18;;;5.78;;
43801;SDS011;29429;51.074;13.764;2022-07-29T12:13:51;8.27;;;4.95;;
43801;SDS011;29429;51.074;13.764;2022-07-29T12:16:19;6.10;;;3.35;;
43801;SDS011;29429;51.074;13.764;2022-07-29T12:18:58;3.92;;;2.70;;
43801;SDS011;29429;51.074;13.764;2022-07-29T12:21:50;5.88;;;3.40;;
43801;SDS011;29429;51.074;13.764;2022-07-29T12:24:26;4.90;;;3.33;;
43801;SDS011;29429;51.074;13.764;2022-07-29T12:27:10;5.85;;;3.85;;
43801;SDS011;29429;51.074;13.764;2022-07-29T12:29:39;8.15;;;5.25;;
43801;SDS011;29429;51.074;13.764;2022-07-29T12:32:12;6.78;;;4.25;;
43801;SDS011;29429;51.074;13.764;2022-07-29T12:34:45;5.38;;;3.50;;
43801;SDS011;29429;51.074;13.764;2022-07-29T12:37:12;7.82;;;4.18;;
43801;SDS011;29429;51.074;13.764;2022-07-29T12:39:39;8.23;;;4.20;;
43801;SDS011;29429;51.074;13.764;2022-07-29T12:42:13;6.53;;;3.78;;
43801;SDS011;29429;51.074;13.764;2022-07-29T12:44:48;7.93;;;4.72;;
43801;SDS011;29429;51.074;13.764;2022-07-29T12:47:25;10.07;;;5.32;;
43801;SDS011;29429;51.074;13.764;2022-07-29T12:50:07;7.28;;;5.18;;
43801;SDS011;29429;51.074;13.764;2022-07-29T12:52:48;10.88;;;6.00;;
43801;SDS011;29429;51.074;13.764;2022-07-29T12:55:16;7.80;;;5.50;;
43801;SDS011;29429;51.074;13.764;2022-07-29T12:58:07;9.38;;;5.43;;
43801;SDS011;29429;51.074;13.764;2022-07-29T13:00:34;5.57;;;3.75;;
43801;SDS011;29429;51.074;13.764;2022-07-29T13:03:01;5.43;;;3.22;;
43801;SDS011;29429;51.074;13.764;2022-07-29T13:05:42;6.53;;;3.42;;
43801;SDS011;29429;51.074;13.764;2022-07-29T13:08:15;6.30;;;3.60;;
43801;SDS011;29429;51.074;13.764;2022-07-29T13:10:48;7.63;;;5.27;;
43801;SDS011;29429;51.074;13.764;2022-07-29T13:13:14;6.47;;;4.50;;
43801;SDS011;29429;51.074;13.764;2022-07-29T13:15:42;5.13;;;3.33;;
43801;SDS011;29429;51.074;13.764;2022-07-29T13:18:33;3.38;;;2.85;;
43801;SDS011;29429;51.074;13.764;2022-07-29T13:21:11;3.45;;;2.35;;
43801;SDS011;29429;51.074;13.764;2022-07-29T13:23:42;4.93;;;2.75;;
43801;SDS011;29429;51.074;13.764;2022-07-29T13:26:09;6.47;;;3.65;;
43801;SDS011;29429;51.074;13.764;2022-07-29T13:28:37;4.90;;;2.28;;
43801;SDS011;29429;51.074;13.764;2022-07-29T13:31:04;5.05;;;2.55;;
43801;SDS011;29429;51.074;13.764;2022-07-29T13:33:32;3.85;;;2.55;;
43801;SDS011;29429;51.074;13.764;2022-07-29T13:35:58;3.88;;;2.58;;
43801;SDS011;29429;51.074;13.764;2022-07-29T13:38:26;5.80;;;3.38;;
43801;SDS011;29429;51.074;13.764;2022-07-29T13:40:56;6.05;;;3.65;;
43801;SDS011;29429;51.074;13.764;2022-07-29T13:43:24;4.50;;;2.88;;
43801;SDS011;29429;51.074;13.764;2022-07-29T13:45:51;3.83;;;2.92;;
43801;SDS011;29429;51.074;13.764;2022-07-29T13:48:18;3.80;;;3.05;;
43801;SDS011;29429;51.074;13.764;2022-07-29T13:50:45;6.50;;;3.33;;
43801;SDS011;29429;51.074;13.764;2022-07-29T13:53:12;4.57;;;2.90;;
43801;SDS011;29429;51.074;13.764;2022-07-29T13:55:43;5.00;;;2.67;;
43801;SDS011;29429;51.074;13.764;2022-07-29T13:58:10;2.60;;;2.40;;
43801;SDS011;29429;51.074;13.764;2022-07-29T14:00:37;2.95;;;2.30;;
43801;SDS011;29429;51.074;13.764;2022-07-29T14:03:04;2.55;;;2.13;;
43801;SDS011;29429;51.074;13.764;2022-07-29T14:08:35;2.85;;;2.20;;
43801;SDS011;29429;51.074;13.764;2022-07-29T14:11:02;3.38;;;2.10;;
43801;SDS011;29429;51.074;13.764;2022-07-29T14:13:30;3.78;;;2.20;;
43801;SDS011;29429;51.074;13.764;2022-07-29T14:15:57;2.60;;;2.28;;
43801;SDS011;29429;51.074;13.764;2022-07-29T14:18:24;3.45;;;2.15;;
43801;SDS011;29429;51.074;13.764;2022-07-29T14:20:51;4.38;;;2.50;;
43801;SDS011;29429;51.074;13.764;2022-07-29T14:23:18;2.80;;;2.13;;
43801;SDS011;29429;51.074;13.764;2022-07-29T14:25:45;3.45;;;2.38;;
43801;SDS011;29429;51.074;13.764;2022-07-29T14:28:14;1.98;;;1.63;;
43801;SDS011;29429;51.074;13.764;2022-07-29T14:30:41;2.85;;;2.03;;
43801;SDS011;29429;51.074;13.764;2022-07-29T14:33:09;3.33;;;2.90;;
43801;SDS011;29429;51.074;13.764;2022-07-29T14:35:36;2.42;;;2.10;;
43801;SDS011;29429;51.074;13.764;2022-07-29T14:38:03;3.53;;;2.20;;
43801;SDS011;29429;51.074;13.764;2022-07-29T14:40:30;3.33;;;2.17;;
43801;SDS011;29429;51.074;13.764;2022-07-29T14:42:57;3.60;;;2.08;;
43801;SDS011;29429;51.074;13.764;2022-07-29T14:45:23;2.97;;;2.22;;
43801;SDS011;29429;51.074;13.764;2022-07-29T14:47:50;3.72;;;2.38;;
43801;SDS011;29429;51.074;13.764;2022-07-29T14:50:22;3.55;;;2.78;;
43801;SDS011;29429;51.074;13.764;2022-07-29T14:52:57;4.65;;;2.72;;
43801;SDS011;29429;51.074;13.764;2022-07-29T14:55:25;5.40;;;2.78;;
43801;SDS011;29429;51.074;13.764;2022-07-29T14:57:52;3.83;;;2.40;;
43801;SDS011;29429;51.074;13.764;2022-07-29T15:00:31;4.35;;;2.53;;
43801;SDS011;29429;51.074;13.764;2022-07-29T15:02:59;5.28;;;3.58;;
43801;SDS011;29429;51.074;13.764;2022-07-29T15:05:28;6.40;;;4.15;;
43801;SDS011;29429;51.074;13.764;2022-07-29T15:07:58;6.53;;;4.25;;
43801;SDS011;29429;51.074;13.764;2022-07-29T15:10:26;7.25;;;4.47;;
43801;SDS011;29429;51.074;13.764;2022-07-29T15:12:53;7.85;;;4.63;;
43801;SDS011;29429;51.074;13.764;2022-07-29T15:15:21;7.03;;;4.93;;
43801;SDS011;29429;51.074;13.764;2022-07-29T15:17:48;8.35;;;5.75;;
43801;SDS011;29429;51.074;13.764;2022-07-29T15:20:15;8.75;;;6.00;;
43801;SDS011;29429;51.074;13.764;2022-07-29T15:22:42;9.40;;;6.47;;
43801;SDS011;29429;51.074;13.764;2022-07-29T15:25:09;10.00;;;6.68;;
43801;SDS011;29429;51.074;13.764;2022-07-29T15:27:36;8.57;;;6.90;;
43801;SDS011;29429;51.074;13.764;2022-07-29T15:30:04;12.35;;;7.40;;
43801;SDS011;29429;51.074;13.764;2022-07-29T15:32:31;13.27;;;7.55;;
43801;SDS011;29429;51.074;13.764;2022-07-29T15:34:59;9.95;;;7.25;;
43801;SDS011;29429;51.074;13.764;2022-07-29T15:37:25;9.95;;;7.07;;
43801;SDS011;29429;51.074;13.764;2022-07-29T15:40:14;10.15;;;7.05;;
43801;SDS011;29429;51.074;13.764;2022-07-29T15:42:41;11.45;;;7.22;;
43801;SDS011;29429;51.074;13.764;2022-07-29T15:45:08;9.13;;;6.22;;
43801;SDS011;29429;51.074;13.764;2022-07-29T15:47:35;8.85;;;6.88;;
43801;SDS011;29429;51.074;13.764;2022-07-29T15:50:02;12.55;;;7.45;;